Currently 79°F in Hemet, California, USA
79°F
79°F / 58°F
3 mph SW
0.00"
Saturday, June 23, 2018 11:01 AM PDT

Hemet, California Weather Summary
Last 36 Hours

Temperature Winds Hourly Humidity Dewpoint
Time Report Norm Report Norm Max Gusts Precip. Rpt. Norm Rpt. Norm Pressure
1Sat 11:01 AM  79.2°F  81°F  3 mph SW  1 mph  7 mph  0.00"  35%  34%  48°F  49°F  29.74"
Sat 11:00 AM  79.2°F  81°F  4 mph SW  1 mph  8 mph  0.00"  36%  35%  49°F  50°F  29.74"
2Sat 10:59 AM  79.2°F  81°F  4 mph SW  1 mph  7 mph  ----  36%  35%  49°F  50°F  29.74"
Sat 10:00 AM  73.6°F  77°F  3 mph W  1 mph  7 mph  0.00"  50%  41%  53°F  50°F  29.74"
Sat 09:00 AM  70.3°F  72°F  2 mph SW  calm  3 mph  0.00"  56%  48%  53°F  50°F  29.72"
Sat 08:00 AM  65.3°F  67°F  calm  calm  none  0.00"  61%  54%  51°F  50°F  29.72"
Sat 07:00 AM  61.0°F  64°F  calm  calm  none  0.00"  65%  55%  49°F  47°F  29.70"
3Sat 06:13 AM  58.3°F  62°F  calm  calm  none  ----  70%  55%  48°F  45°F  29.71"
Sat 06:00 AM  58.6°F  62°F  calm  calm  none  0.00"  70%  55%  49°F  45°F  29.71"
Sat 05:00 AM  60.3°F  63°F  calm  calm  none  0.00"  70%  55%  50°F  46°F  29.70"
Sat 04:00 AM  62.1°F  63°F  calm  calm  none  0.00"  66%  54%  50°F  46°F  29.70"
Sat 03:00 AM  63.9°F  64°F  calm  calm  none  0.00"  54%  54%  46°F  46°F  29.70"
Sat 02:00 AM  65.8°F  65°F  calm  calm  none  0.00"  51%  54%  47°F  47°F  29.71"
Sat 01:00 AM  67.8°F  66°F  calm  calm  none  0.00"  48%  53%  47°F  48°F  29.71"
Sat 12:00 AM  70.5°F  67°F  calm  calm  none  0.00"  42%  51%  45°F  48°F  29.73"
Fri 11:00 PM  72.0°F  69°F  calm  calm  none  0.00"  42%  49%  47°F  49°F  29.74"
Fri 10:00 PM  75.4°F  71°F  calm  calm  none  0.00"  33%  46%  43°F  49°F  29.75"
Fri 09:00 PM  79.2°F  75°F  calm  calm  5 mph  0.00"  27%  42%  41°F  49°F  29.73"
Fri 08:00 PM  84.6°F  79°F  2 mph W  1 mph  7 mph  0.00"  26%  36%  45°F  49°F  29.71"
Fri 07:00 PM  91.4°F  84°F  3 mph SW  2 mph  9 mph  0.00"  25%  31%  49°F  49°F  29.70"
Fri 06:00 PM  95.4°F  87°F  6 mph SW  3 mph  10 mph  0.00"  21%  27%  48°F  48°F  29.69"
Fri 05:00 PM  96.6°F  89°F  4 mph W  4 mph  12 mph  0.00"  19%  25%  46°F  47°F  29.69"
Fri 04:00 PM  97.5°F  91°F  5 mph W  4 mph  9 mph  0.00"  17%  22%  44°F  46°F  29.71"
Fri 03:00 PM  96.1°F  91°F  3 mph W  3 mph  12 mph  0.00"  18%  22%  44°F  45°F  29.74"
Fri 02:00 PM  93.9°F  90°F  6 mph W  3 mph  12 mph  0.00"  19%  22%  44°F  45°F  29.75"
Fri 01:00 PM  92.3°F  88°F  6 mph W  3 mph  9 mph  0.00"  21%  24%  45°F  46°F  29.76"
Fri 12:00 PM  87.8°F  85°F  6 mph W  2 mph  10 mph  0.00"  27%  29%  49°F  47°F  29.79"
Fri 11:00 AM  82.9°F  81°F  3 mph SW  1 mph  7 mph  0.00"  33%  35%  50°F  49°F  29.80"
Fri 10:00 AM  77.7°F  76°F  3 mph W  1 mph  5 mph  0.00"  47%  41%  55°F  50°F  29.80"
Fri 09:00 AM  70.9°F  71°F  calm  calm  3 mph  0.00"  53%  48%  52°F  50°F  29.81"
Fri 08:00 AM  65.5°F  67°F  calm  calm  3 mph  0.00"  68%  55%  54°F  49°F  29.80"
Fri 07:00 AM  60.1°F  63°F  calm  calm  none  0.00"  76%  55%  52°F  46°F  29.80"
Fri 06:00 AM  60.3°F  62°F  calm  calm  none  0.00"  77%  55%  53°F  45°F  29.80"
Fri 05:00 AM  60.4°F  62°F  calm  calm  none  0.00"  77%  55%  53°F  45°F  29.80"
Fri 04:00 AM  60.4°F  63°F  calm  calm  none  0.00"  77%  55%  53°F  46°F  29.80"
Fri 03:00 AM  62.1°F  64°F  calm  calm  none  0.00"  73%  55%  53°F  47°F  29.81"
Fri 02:00 AM  64.0°F  64°F  calm  calm  none  0.00"  68%  55%  53°F  47°F  29.81"
Fri 01:00 AM  65.1°F  66°F  calm  calm  none  0.00"  71%  53%  55°F  48°F  29.82"
Fri 12:00 AM  68.2°F  67°F  calm  calm  none  0.00"  65%  52%  56°F  48°F  29.82"

  1. Current weather data. No green row appears if the current weather data is also the high or low for the current day.
  2. High temperature for the current day.
  3. Low temperature for the current day.

The Hemet weather pages are a service of WeatherCurrents. Hemet, California is located in the San Jacinto Valley, in western Riverside County, at the foot of the San Jacinto mountains.
Copyright ©Sat Jun 23 11:03:05 PDT 2018  WeatherCurrents. All rights reserved. - Submit questions and comments - Privacy Policy

This page automatically refreshes every 10 minutes.